Time;durP1;ratioP1;P1;durP2;ratioP2;P2;SDS_P1;SDS_P2;PMS_P1;PMS_P2;Temp;Humidity;BMP_temperature;BMP_pressure;BME280_temperature;BME280_humidity;BME280_pressure;Samples;Min_cycle;Max_cycle;Signal;HPM_P1;HPM_P2
2021/07/21 00:02:50;;;;;;;5.53;3.13;;;;;;;;;;6207318;28;20132;-64
2021/07/21 00:05:53;;;;;;;8.07;3.22;;;;;;;;;;6201122;28;20066;-64
2021/07/21 00:08:55;;;;;;;;;;;;;;;;;;6214163;28;20151;-64
2021/07/21 00:15:15;;;;;;;7.05;3.40;;;;;;;;;;6210069;28;20046;-66
2021/07/21 00:18:19;;;;;;;7.25;3.45;;;;;;;;;;6208042;28;20421;-65
2021/07/21 00:21:26;;;;;;;10.68;2.97;;;;;;;;;;6213017;28;20056;-64
2021/07/21 00:24:28;;;;;;;7.05;3.22;;;;;;;;;;6218325;28;20121;-64
2021/07/21 00:27:30;;;;;;;7.80;3.35;;;;;;;;;;6211801;28;20101;-65
2021/07/21 00:30:31;;;;;;;4.43;3.17;;;;;;;;;;6211197;28;20531;-69
2021/07/21 00:33:33;;;;;;;6.70;3.33;;;;;;;;;;6211515;28;20049;-64
2021/07/21 00:36:36;;;;;;;4.82;3.30;;;;;;;;;;6209957;28;20482;-66
2021/07/21 00:39:37;;;;;;;;;;;;;;;;;;6219024;28;20144;-64
2021/07/21 00:42:39;;;;;;;6.22;3.35;;;;;;;;;;6215276;28;19926;-64
2021/07/21 00:45:41;;;;;;;4.70;2.75;;;;;;;;;;6214043;28;20159;-64
2021/07/21 00:48:43;;;;;;;5.05;3.15;;;;;;;;;;6215295;28;20058;-64
2021/07/21 00:51:46;;;;;;;6.95;3.17;;;;;;;;;;6213175;28;20451;-64
2021/07/21 00:54:49;;;;;;;5.82;2.97;;;;;;;;;;6216287;28;20127;-64
2021/07/21 00:57:51;;;;;;;5.65;3.25;;;;;;;;;;6209850;28;20053;-64
2021/07/21 01:00:55;;;;;;;4.38;2.72;;;;;;;;;;6214067;28;20487;-64
2021/07/21 01:03:57;;;;;;;4.90;3.08;;;;;;;;;;6213873;28;20054;-65
2021/07/21 01:07:01;;;;;;;5.22;3.20;;;;;;;;;;6210402;28;20050;-65
2021/07/21 01:10:03;;;;;;;5.80;3.13;;;;;;;;;;6214272;28;20058;-65
2021/07/21 01:13:08;;;;;;;5.55;3.42;;;;;;;;;;6215079;28;20116;-65
2021/07/21 01:16:15;;;;;;;5.72;3.30;;;;;;;;;;6206039;28;20053;-65
2021/07/21 01:19:21;;;;;;;9.60;3.67;;;;;;;;;;6215265;28;20124;-67
2021/07/21 01:22:26;;;;;;;5.43;3.20;;;;;;;;;;6213663;28;20054;-67
2021/07/21 01:25:29;;;;;;;6.20;3.15;;;;;;;;;;6210878;28;20046;-64
2021/07/21 01:28:34;;;;;;;4.70;2.90;;;;;;;;;;6218261;28;20046;-65
2021/07/21 01:31:38;;;;;;;5.57;3.13;;;;;;;;;;6207465;28;20046;-69
2021/07/21 01:34:40;;;;;;;5.05;2.90;;;;;;;;;;6215785;28;20192;-65
2021/07/21 01:37:47;;;;;;;5.20;2.88;;;;;;;;;;6209112;28;20107;-64
2021/07/21 01:40:52;;;;;;;5.80;3.20;;;;;;;;;;6208514;28;20061;-65
2021/07/21 01:43:57;;;;;;;5.40;2.97;;;;;;;;;;6219417;28;20132;-67
2021/07/21 01:47:02;;;;;;;5.22;3.17;;;;;;;;;;6204318;28;20183;-64
2021/07/21 01:50:06;;;;;;;7.03;3.25;;;;;;;;;;6211572;28;20054;-65
2021/07/21 01:53:09;;;;;;;5.95;3.10;;;;;;;;;;6211172;28;20124;-64
2021/07/21 01:56:11;;;;;;;5.60;3.33;;;;;;;;;;6213078;28;20461;-65
2021/07/21 01:59:16;;;;;;;4.78;3.45;;;;;;;;;;6221303;28;20048;-64
2021/07/21 02:02:21;;;;;;;4.95;3.25;;;;;;;;;;6208026;28;20050;-68
2021/07/21 02:05:24;;;;;;;4.57;3.42;;;;;;;;;;6210676;28;20046;-68
2021/07/21 02:08:26;;;;;;;8.02;3.30;;;;;;;;;;6215302;28;20116;-68
2021/07/21 02:11:29;;;;;;;5.50;3.72;;;;;;;;;;6212482;28;20049;-64
2021/07/21 02:14:32;;;;;;;4.47;3.30;;;;;;;;;;6216058;28;20131;-64
2021/07/21 02:17:35;;;;;;;7.95;3.78;;;;;;;;;;6204833;28;20104;-65
2021/07/21 02:20:36;;;;;;;6.05;3.92;;;;;;;;;;6200038;28;20053;-65
2021/07/21 02:23:38;;;;;;;8.98;3.83;;;;;;;;;;6215178;28;20049;-64
2021/07/21 02:26:41;;;;;;;8.95;4.10;;;;;;;;;;6217738;28;20061;-65
2021/07/21 02:29:44;;;;;;;6.97;3.50;;;;;;;;;;6225188;28;20056;-65
2021/07/21 02:32:50;;;;;;;4.60;3.63;;;;;;;;;;6208815;28;20137;-64
2021/07/21 02:35:52;;;;;;;5.22;3.65;;;;;;;;;;6215031;28;20078;-64
2021/07/21 02:38:53;;;;;;;6.75;3.80;;;;;;;;;;6223326;28;20054;-64
2021/07/21 02:41:55;;;;;;;5.20;3.90;;;;;;;;;;6205075;28;20056;-64
2021/07/21 02:44:58;;;;;;;9.68;4.72;;;;;;;;;;6220930;28;20050;-64
2021/07/21 02:48:00;;;;;;;7.47;4.82;;;;;;;;;;6199616;28;20134;-65
2021/07/21 02:51:04;;;;;;;9.75;4.57;;;;;;;;;;6203918;28;20482;-64
2021/07/21 02:54:11;;;;;;;8.30;4.88;;;;;;;;;;6216550;28;20046;-64
2021/07/21 02:57:14;;;;;;;10.38;4.72;;;;;;;;;;6214252;28;20089;-65
2021/07/21 03:00:19;;;;;;;8.15;4.47;;;;;;;;;;6217446;28;20046;-70
2021/07/21 03:03:21;;;;;;;9.93;4.80;;;;;;;;;;6207860;28;20119;-68
2021/07/21 03:06:25;;;;;;;8.20;5.28;;;;;;;;;;6211122;28;20413;-64
2021/07/21 03:09:27;;;;;;;10.02;4.50;;;;;;;;;;6214356;28;20548;-65
2021/07/21 03:12:30;;;;;;;9.55;4.32;;;;;;;;;;6210078;28;20092;-64
2021/07/21 03:15:36;;;;;;;13.45;5.32;;;;;;;;;;6211034;28;20052;-66
2021/07/21 03:18:39;;;;;;;9.40;4.22;;;;;;;;;;6194750;28;20061;-65
2021/07/21 03:21:41;;;;;;;10.20;4.90;;;;;;;;;;6183263;28;20165;-64
2021/07/21 03:24:44;;;;;;;10.20;4.63;;;;;;;;;;6185160;28;20046;-65
2021/07/21 03:27:46;;;;;;;10.77;4.32;;;;;;;;;;6190191;28;20070;-65
2021/07/21 03:30:49;;;;;;;10.18;4.43;;;;;;;;;;6196858;28;20046;-65
2021/07/21 03:34:01;;;;;;;10.43;4.18;;;;;;;;;;6187893;28;20120;-64
2021/07/21 03:37:03;;;;;;;9.73;4.50;;;;;;;;;;6182214;28;20101;-64
2021/07/21 03:40:07;;;;;;;8.85;4.38;;;;;;;;;;6186906;28;20129;-67
2021/07/21 03:43:09;;;;;;;6.07;4.05;;;;;;;;;;6200227;28;20058;-65
2021/07/21 03:46:14;;;;;;;9.32;4.60;;;;;;;;;;6199408;28;20182;-65
2021/07/21 03:49:17;;;;;;;10.07;3.97;;;;;;;;;;6210362;28;20086;-67
2021/07/21 03:52:19;;;;;;;9.82;4.68;;;;;;;;;;6201351;28;20069;-64
2021/07/21 03:55:25;;;;;;;9.27;4.57;;;;;;;;;;6188157;28;20042;-67
2021/07/21 03:58:27;;;;;;;6.55;4.07;;;;;;;;;;6196754;28;20042;-65
2021/07/21 04:01:30;;;;;;;11.25;4.10;;;;;;;;;;6184192;28;20073;-65
2021/07/21 04:04:32;;;;;;;8.25;3.70;;;;;;;;;;6189756;28;20051;-66
2021/07/21 04:07:36;;;;;;;10.30;4.13;;;;;;;;;;6188754;28;20124;-64
2021/07/21 04:10:38;;;;;;;8.02;4.40;;;;;;;;;;6203226;28;20512;-67
2021/07/21 04:13:41;;;;;;;8.85;4.25;;;;;;;;;;6208493;28;20038;-66
2021/07/21 04:16:45;;;;;;;7.38;4.10;;;;;;;;;;6179714;28;20074;-64
2021/07/21 04:19:48;;;;;;;11.82;4.72;;;;;;;;;;6188085;28;20086;-65
2021/07/21 04:22:50;;;;;;;7.50;4.60;;;;;;;;;;6183153;28;20042;-65
2021/07/21 04:25:52;;;;;;;7.07;3.85;;;;;;;;;;6184341;28;20050;-64
2021/07/21 04:28:54;;;;;;;9.07;4.32;;;;;;;;;;6190797;28;20046;-65
2021/07/21 04:31:57;;;;;;;11.30;4.90;;;;;;;;;;6191966;28;20045;-65
2021/07/21 04:34:59;;;;;;;8.27;4.25;;;;;;;;;;6191610;28;21535;-67
2021/07/21 04:38:01;;;;;;;11.25;3.83;;;;;;;;;;6194138;28;20090;-65
2021/07/21 04:41:03;;;;;;;9.43;3.90;;;;;;;;;;6185401;28;20054;-64
2021/07/21 04:44:05;;;;;;;8.30;4.07;;;;;;;;;;6193277;28;20095;-64
2021/07/21 04:47:09;;;;;;;5.97;3.58;;;;;;;;;;6179876;28;20521;-65
2021/07/21 04:50:15;;;;;;;11.25;3.95;;;;;;;;;;6183288;28;20136;-66
2021/07/21 04:53:17;;;;;;;8.80;4.47;;;;;;;;;;6188827;28;20062;-65
2021/07/21 04:56:18;;;;;;;6.85;3.78;;;;;;;;;;6169124;28;20050;-64
2021/07/21 04:59:20;;;;;;;7.90;4.32;;;;;;;;;;6184796;28;20042;-64
2021/07/21 05:02:23;;;;;;;9.98;4.65;;;;;;;;;;6191702;28;20049;-65
2021/07/21 05:05:25;;;;;;;10.80;5.15;;;;;;;;;;6185981;28;20130;-65
2021/07/21 05:08:27;;;;;;;9.85;4.25;;;;;;;;;;6192903;28;20093;-64
2021/07/21 05:11:28;;;;;;;10.02;4.30;;;;;;;;;;6195482;28;20050;-64
2021/07/21 05:14:30;;;;;;;7.72;4.68;;;;;;;;;;6199676;28;20054;-64
2021/07/21 05:17:33;;;;;;;8.88;4.15;;;;;;;;;;6176927;28;20050;-65
2021/07/21 05:23:48;;;;;;;8.90;4.35;;;;;;;;;;6157213;28;20490;-65
2021/07/21 05:26:50;;;;;;;7.60;4.38;;;;;;;;;;6179927;28;20046;-64
2021/07/21 05:29:51;;;;;;;11.93;4.38;;;;;;;;;;6170173;28;20047;-65
2021/07/21 05:32:54;;;;;;;8.07;4.60;;;;;;;;;;6165042;28;20055;-64
2021/07/21 05:35:56;;;;;;;9.45;4.70;;;;;;;;;;6153895;28;20086;-64
2021/07/21 05:38:58;;;;;;;12.25;4.20;;;;;;;;;;6184247;28;20494;-64
2021/07/21 05:41:59;;;;;;;9.68;4.72;;;;;;;;;;6171304;28;20089;-64
2021/07/21 05:45:01;;;;;;;9.25;4.65;;;;;;;;;;6176033;28;20057;-65
2021/07/21 05:48:05;;;;;;;10.73;5.10;;;;;;;;;;6173362;28;20398;-63
2021/07/21 05:51:07;;;;;;;12.45;4.47;;;;;;;;;;6182256;28;20050;-63
2021/07/21 05:54:09;;;;;;;10.98;5.15;;;;;;;;;;6191683;28;20042;-66
2021/07/21 05:57:11;;;;;;;13.55;4.93;;;;;;;;;;6182319;28;20042;-64
2021/07/21 06:00:13;;;;;;;12.02;5.20;;;;;;;;;;6187098;28;20057;-66
2021/07/21 06:03:20;;;;;;;10.52;5.45;;;;;;;;;;6181400;28;20070;-63
2021/07/21 06:06:21;;;;;;;15.02;5.50;;;;;;;;;;6182046;28;20053;-63
2021/07/21 06:09:23;;;;;;;10.45;5.20;;;;;;;;;;6190635;28;20042;-64
2021/07/21 06:12:25;;;;;;;9.70;5.28;;;;;;;;;;6180282;28;20137;-65
2021/07/21 06:15:29;;;;;;;9.85;5.43;;;;;;;;;;6174097;28;20070;-64
2021/07/21 06:18:32;;;;;;;8.30;4.75;;;;;;;;;;6181838;28;20049;-64
2021/07/21 06:21:33;;;;;;;9.50;4.85;;;;;;;;;;6180993;28;20188;-64
2021/07/21 06:24:35;;;;;;;13.25;5.22;;;;;;;;;;6186534;28;20042;-63
2021/07/21 06:27:37;;;;;;;10.63;5.00;;;;;;;;;;6156539;28;21309;-64
2021/07/21 06:30:40;;;;;;;11.25;5.60;;;;;;;;;;6145058;28;20047;-64
2021/07/21 06:33:43;;;;;;;12.57;5.50;;;;;;;;;;6160308;28;20042;-65
2021/07/21 06:36:45;;;;;;;;;;;;;;;;;;6151783;28;20096;-65
2021/07/21 06:39:47;;;;;;;8.75;4.93;;;;;;;;;;6158069;28;19929;-68
2021/07/21 06:42:49;;;;;;;10.43;4.82;;;;;;;;;;6171074;28;20137;-66
2021/07/21 06:45:50;;;;;;;10.10;4.88;;;;;;;;;;6166649;28;20062;-65
2021/07/21 06:48:53;;;;;;;9.85;5.25;;;;;;;;;;6160303;28;20066;-67
2021/07/21 06:51:55;;;;;;;;;;;;;;;;;;6157925;28;20043;-65
2021/07/21 06:54:57;;;;;;;8.95;5.28;;;;;;;;;;6160115;28;19930;-65
2021/07/21 06:57:59;;;;;;;8.93;5.15;;;;;;;;;;6153349;28;20047;-65
2021/07/21 07:01:01;;;;;;;13.23;5.30;;;;;;;;;;6155995;28;20053;-67
2021/07/21 07:04:04;;;;;;;9.27;5.60;;;;;;;;;;6160983;28;20047;-65
2021/07/21 07:07:06;;;;;;;9.43;4.93;;;;;;;;;;6174206;28;20042;-65
2021/07/21 07:10:09;;;;;;;11.98;4.93;;;;;;;;;;6185055;28;20490;-70
2021/07/21 07:13:11;;;;;;;8.70;5.18;;;;;;;;;;6182684;28;20054;-65
2021/07/21 07:16:13;;;;;;;11.60;5.35;;;;;;;;;;6178778;28;20442;-65
2021/07/21 07:19:17;;;;;;;9.57;5.18;;;;;;;;;;6182739;28;20046;-66
2021/07/21 07:22:19;;;;;;;9.18;4.90;;;;;;;;;;6178650;28;20070;-67
2021/07/21 07:25:21;;;;;;;11.30;5.07;;;;;;;;;;6183827;28;20651;-67
2021/07/21 07:28:22;;;;;;;8.98;4.80;;;;;;;;;;6185500;28;20394;-65
2021/07/21 07:31:35;;;;;;;10.20;4.85;;;;;;;;;;6175075;28;20057;-66
2021/07/21 07:34:38;;;;;;;14.75;5.03;;;;;;;;;;6182140;28;20189;-65
2021/07/21 07:37:40;;;;;;;11.98;5.07;;;;;;;;;;6180657;28;20043;-65
2021/07/21 07:40:43;;;;;;;13.88;8.25;;;;;;;;;;6181482;28;20069;-66
2021/07/21 07:43:44;;;;;;;;;;;;;;;;;;6187476;28;20090;-66
2021/07/21 07:46:46;;;;;;;9.73;5.28;;;;;;;;;;6175572;28;19929;-67
2021/07/21 07:49:49;;;;;;;9.27;4.45;;;;;;;;;;6185236;28;20054;-65
2021/07/21 07:52:52;;;;;;;10.35;5.53;;;;;;;;;;6177331;28;20054;-65
2021/07/21 07:55:54;;;;;;;;;;;;;;;;;;6178687;28;20070;-65
2021/07/21 07:58:55;;;;;;;17.17;5.95;;;;;;;;;;6193795;28;20063;-66
2021/07/21 08:01:58;;;;;;;9.57;4.83;;;;;;;;;;6175049;28;20064;-66
2021/07/21 08:05:01;;;;;;;9.55;5.18;;;;;;;;;;6178966;28;20484;-66
2021/07/21 08:08:03;;;;;;;11.30;4.45;;;;;;;;;;6177001;28;20053;-65
2021/07/21 08:11:06;;;;;;;9.38;5.65;;;;;;;;;;6177451;28;20482;-65
2021/07/21 08:14:07;;;;;;;7.93;4.88;;;;;;;;;;6186512;28;20054;-65
2021/07/21 08:17:09;;;;;;;9.70;6.32;;;;;;;;;;6173317;28;20062;-64
2021/07/21 08:20:14;;;;;;;9.30;5.00;;;;;;;;;;6181034;28;20466;-67
2021/07/21 08:23:16;;;;;;;10.20;5.60;;;;;;;;;;6178309;28;20503;-67
2021/07/21 08:26:18;;;;;;;11.90;5.63;;;;;;;;;;6179778;28;20140;-65
2021/07/21 08:29:19;;;;;;;8.70;4.93;;;;;;;;;;6182992;28;20054;-68
2021/07/21 08:32:21;;;;;;;12.15;4.53;;;;;;;;;;6173496;28;20485;-65
2021/07/21 08:35:28;;;;;;;11.68;4.70;;;;;;;;;;6178254;28;20057;-67
2021/07/21 08:38:29;;;;;;;10.18;4.47;;;;;;;;;;6182566;28;20046;-66
2021/07/21 08:41:33;;;;;;;11.35;5.00;;;;;;;;;;6183912;28;20584;-68
2021/07/21 08:44:35;;;;;;;8.20;4.20;;;;;;;;;;6191690;28;20050;-65
2021/07/21 08:47:37;;;;;;;8.10;6.30;;;;;;;;;;6176959;28;20065;-66
2021/07/21 08:50:41;;;;;;;9.48;4.70;;;;;;;;;;6184224;28;20985;-66
2021/07/21 08:53:42;;;;;;;9.38;3.97;;;;;;;;;;6190832;28;20550;-67
2021/07/21 08:56:45;;;;;;;8.95;4.80;;;;;;;;;;6174222;28;20118;-65
2021/07/21 08:59:47;;;;;;;14.23;4.82;;;;;;;;;;6188163;28;20054;-65
2021/07/21 09:02:48;;;;;;;11.98;4.35;;;;;;;;;;6168532;28;21146;-65
2021/07/21 09:05:53;;;;;;;12.15;4.70;;;;;;;;;;6183278;28;20053;-66
2021/07/21 09:08:55;;;;;;;12.05;5.43;;;;;;;;;;6189396;28;21078;-65
2021/07/21 09:11:57;;;;;;;9.65;4.97;;;;;;;;;;6179010;28;20431;-65
2021/07/21 09:14:59;;;;;;;7.07;4.60;;;;;;;;;;6186038;28;20107;-65
2021/07/21 09:18:05;;;;;;;8.18;4.88;;;;;;;;;;6175941;28;20139;-66
2021/07/21 09:21:09;;;;;;;9.10;4.22;;;;;;;;;;6177859;28;20051;-66
2021/07/21 09:24:19;;;;;;;7.78;5.05;;;;;;;;;;6187987;28;20080;-65
2021/07/21 09:27:27;;;;;;;12.40;4.78;;;;;;;;;;6172251;28;20054;-67
2021/07/21 09:30:31;;;;;;;10.82;4.60;;;;;;;;;;6180140;28;20050;-68
2021/07/21 09:33:33;;;;;;;7.47;4.03;;;;;;;;;;6180868;28;20057;-65
2021/07/21 09:36:36;;;;;;;34.90;17.00;;;;;;;;;;6180382;28;20421;-65
2021/07/21 09:39:39;;;;;;;11.95;5.25;;;;;;;;;;6186185;28;20073;-66
2021/07/21 09:42:41;;;;;;;10.13;4.93;;;;;;;;;;6183369;28;20065;-66
2021/07/21 09:45:43;;;;;;;9.07;4.15;;;;;;;;;;6183238;28;20071;-67
2021/07/21 09:48:46;;;;;;;11.90;4.63;;;;;;;;;;6185920;28;20185;-66
2021/07/21 09:51:49;;;;;;;7.88;4.35;;;;;;;;;;6177832;28;20105;-66
2021/07/21 09:55:06;;;;;;;8.07;4.28;;;;;;;;;;6186468;28;20086;-67
2021/07/21 09:58:09;;;;;;;9.27;4.15;;;;;;;;;;6181356;28;20144;-67
2021/07/21 10:01:11;;;;;;;13.48;4.43;;;;;;;;;;6177071;28;20150;-67
2021/07/21 10:04:12;;;;;;;12.40;4.38;;;;;;;;;;6183357;28;20120;-67
2021/07/21 10:07:33;;;;;;;12.65;4.90;;;;;;;;;;6174862;28;20045;-68
2021/07/21 10:10:35;;;;;;;8.00;4.00;;;;;;;;;;6179496;28;20053;-68
2021/07/21 10:13:38;;;;;;;9.77;4.25;;;;;;;;;;6187334;28;20050;-67
2021/07/21 10:16:42;;;;;;;13.10;7.80;;;;;;;;;;6174731;28;20061;-66
2021/07/21 10:19:44;;;;;;;9.23;4.50;;;;;;;;;;6185134;28;20629;-70
2021/07/21 10:22:47;;;;;;;7.00;4.43;;;;;;;;;;6177608;28;20082;-67
2021/07/21 10:25:49;;;;;;;9.60;4.65;;;;;;;;;;6175259;28;20510;-68
2021/07/21 10:28:51;;;;;;;13.07;4.07;;;;;;;;;;6188174;28;20078;-69
2021/07/21 10:31:52;;;;;;;;;;;;;;;;;;6177995;28;20047;-67
2021/07/21 10:34:55;;;;;;;9.00;4.47;;;;;;;;;;6185612;28;20072;-66
2021/07/21 10:37:58;;;;;;;8.15;4.85;;;;;;;;;;6178747;28;20068;-66
2021/07/21 10:41:00;;;;;;;11.68;4.97;;;;;;;;;;6180245;28;20094;-66
2021/07/21 10:44:02;;;;;;;11.45;4.78;;;;;;;;;;6184982;28;20066;-66
2021/07/21 10:47:21;;;;;;;8.18;4.55;;;;;;;;;;6180353;28;20533;-67
2021/07/21 10:50:40;;;;;;;11.57;4.60;;;;;;;;;;6178927;28;20082;-68
2021/07/21 10:53:53;;;;;;;8.77;4.55;;;;;;;;;;6186540;28;20133;-67
2021/07/21 11:00:16;;;;;;;10.23;4.50;;;;;;;;;;6177061;28;20050;-68
2021/07/21 11:03:21;;;;;;;6.75;4.47;;;;;;;;;;6178257;28;20140;-67
2021/07/21 11:06:36;;;;;;;11.32;5.03;;;;;;;;;;6178755;28;20050;-66
2021/07/21 11:09:42;;;;;;;7.32;4.30;;;;;;;;;;6186138;28;20128;-68
2021/07/21 11:12:49;;;;;;;9.48;4.57;;;;;;;;;;6178060;28;20082;-66
2021/07/21 11:15:51;;;;;;;8.40;4.07;;;;;;;;;;6177711;28;20074;-66
2021/07/21 11:18:52;;;;;;;7.32;4.10;;;;;;;;;;6183685;28;20050;-69
2021/07/21 11:21:55;;;;;;;9.75;4.53;;;;;;;;;;6176982;28;20057;-72
2021/07/21 11:25:10;;;;;;;6.82;4.13;;;;;;;;;;6182969;28;20101;-68
2021/07/21 11:28:12;;;;;;;12.60;4.78;;;;;;;;;;6176228;28;20058;-69
2021/07/21 11:31:14;;;;;;;12.55;4.88;;;;;;;;;;6172562;28;20050;-69
2021/07/21 11:34:27;;;;;;;6.07;4.32;;;;;;;;;;6187864;28;20051;-69
2021/07/21 11:37:33;;;;;;;9.48;4.57;;;;;;;;;;6169717;28;20130;-66
2021/07/21 11:40:45;;;;;;;8.60;4.55;;;;;;;;;;6178927;28;20054;-67
2021/07/21 11:44:01;;;;;;;6.82;4.75;;;;;;;;;;6177411;28;20038;-67
2021/07/21 11:47:06;;;;;;;7.65;3.95;;;;;;;;;;6166443;28;20200;-68
2021/07/21 11:50:10;;;;;;;9.23;4.72;;;;;;;;;;6181973;28;20049;-72
2021/07/21 11:53:12;;;;;;;8.90;4.47;;;;;;;;;;6169993;28;20121;-67
2021/07/21 11:56:16;;;;;;;6.53;4.18;;;;;;;;;;6175483;28;20054;-67
2021/07/21 11:59:27;;;;;;;9.98;4.35;;;;;;;;;;6191393;28;20056;-66
2021/07/21 12:02:30;;;;;;;10.85;4.07;;;;;;;;;;6176336;28;20042;-67
2021/07/21 12:05:33;;;;;;;10.93;4.63;;;;;;;;;;6181785;28;20046;-70
2021/07/21 12:08:34;;;;;;;10.40;4.72;;;;;;;;;;6187696;28;20138;-65
2021/07/21 12:11:37;;;;;;;11.90;5.13;;;;;;;;;;6178526;28;20050;-66
2021/07/21 12:14:41;;;;;;;8.75;4.80;;;;;;;;;;6187039;28;20050;-66
2021/07/21 12:17:43;;;;;;;9.60;5.20;;;;;;;;;;6175648;28;20078;-66
2021/07/21 12:20:45;;;;;;;10.27;4.85;;;;;;;;;;6174671;28;20067;-66
2021/07/21 12:23:59;;;;;;;9.80;4.35;;;;;;;;;;6184947;28;20058;-65
2021/07/21 12:27:03;;;;;;;7.65;4.53;;;;;;;;;;6176038;28;20600;-67
2021/07/21 12:30:06;;;;;;;6.93;4.18;;;;;;;;;;6187593;28;20058;-65
2021/07/21 12:33:08;;;;;;;10.25;4.60;;;;;;;;;;6174433;28;20521;-69
2021/07/21 12:36:10;;;;;;;7.43;4.15;;;;;;;;;;6174545;28;20225;-66
2021/07/21 12:39:12;;;;;;;9.32;4.28;;;;;;;;;;6186810;28;20051;-67
2021/07/21 12:42:18;;;;;;;10.02;4.85;;;;;;;;;;6174351;28;20454;-65
2021/07/21 12:45:21;;;;;;;9.25;4.60;;;;;;;;;;6193997;28;20046;-67
2021/07/21 12:48:22;;;;;;;7.88;4.43;;;;;;;;;;6184508;28;20535;-67
2021/07/21 12:51:24;;;;;;;8.07;4.13;;;;;;;;;;6187032;28;20078;-66
2021/07/21 12:54:26;;;;;;;9.52;4.20;;;;;;;;;;6193555;28;20141;-66
2021/07/21 12:57:37;;;;;;;6.75;4.60;;;;;;;;;;6183926;28;20054;-66
2021/07/21 13:00:42;;;;;;;7.85;4.80;;;;;;;;;;6182083;28;20367;-66
2021/07/21 13:03:50;;;;;;;7.80;4.38;;;;;;;;;;6187563;28;20046;-67
2021/07/21 13:06:51;;;;;;;6.07;4.38;;;;;;;;;;6181971;28;20182;-65
2021/07/21 13:09:54;;;;;;;9.45;4.63;;;;;;;;;;6188669;28;20042;-66
2021/07/21 13:12:57;;;;;;;8.43;4.85;;;;;;;;;;6180403;28;20441;-65
2021/07/21 13:16:00;;;;;;;12.52;4.50;;;;;;;;;;6186896;28;20176;-65
2021/07/21 13:19:04;;;;;;;8.90;5.15;;;;;;;;;;6185058;28;20180;-65
2021/07/21 13:22:20;;;;;;;5.50;4.35;;;;;;;;;;6183002;28;20049;-67
2021/07/21 13:25:22;;;;;;;7.88;4.10;;;;;;;;;;6179922;28;20461;-69
2021/07/21 13:28:30;;;;;;;8.45;4.88;;;;;;;;;;6185782;28;20053;-65
2021/07/21 13:31:34;;;;;;;9.90;5.00;;;;;;;;;;6181521;28;20106;-72
2021/07/21 13:34:36;;;;;;;9.45;5.45;;;;;;;;;;6185135;28;20042;-69
2021/07/21 13:37:38;;;;;;;12.57;5.13;;;;;;;;;;6177213;28;20058;-65
2021/07/21 13:40:40;;;;;;;6.18;4.97;;;;;;;;;;6174586;28;20070;-65
2021/07/21 13:43:54;;;;;;;7.75;5.35;;;;;;;;;;6190882;28;20074;-65
2021/07/21 13:46:57;;;;;;;10.40;5.18;;;;;;;;;;6180914;28;20050;-64
2021/07/21 13:50:04;;;;;;;9.73;5.25;;;;;;;;;;6188829;28;20490;-70
2021/07/21 13:53:08;;;;;;;8.38;4.80;;;;;;;;;;6185358;28;20065;-65
2021/07/21 13:56:10;;;;;;;8.85;5.00;;;;;;;;;;6182172;28;20065;-65
2021/07/21 13:59:13;;;;;;;6.60;4.57;;;;;;;;;;6190901;28;20125;-66
2021/07/21 14:02:21;;;;;;;6.75;5.13;;;;;;;;;;6175527;28;20058;-69
2021/07/21 14:05:23;;;;;;;6.60;5.13;;;;;;;;;;6179699;28;20645;-69
2021/07/21 14:08:24;;;;;;;8.43;5.00;;;;;;;;;;6184073;28;20822;-65
2021/07/21 14:11:27;;;;;;;8.98;5.05;;;;;;;;;;6177869;28;20061;-67
2021/07/21 14:14:30;;;;;;;11.15;4.88;;;;;;;;;;6186595;28;20479;-65
2021/07/21 14:17:33;;;;;;;20.15;10.90;;;;;;;;;;6163262;28;20050;-68
2021/07/21 14:20:34;;;;;;;8.73;5.07;;;;;;;;;;6174619;28;20053;-66
2021/07/21 14:23:37;;;;;;;9.07;4.88;;;;;;;;;;6169178;28;20137;-66
2021/07/21 14:26:40;;;;;;;8.00;5.00;;;;;;;;;;6166513;28;20043;-65
2021/07/21 14:29:43;;;;;;;8.43;5.20;;;;;;;;;;6183196;28;20125;-65
2021/07/21 14:32:44;;;;;;;9.35;5.20;;;;;;;;;;6168756;28;20153;-67
2021/07/21 14:35:46;;;;;;;9.65;5.72;;;;;;;;;;6180928;28;20607;-65
2021/07/21 14:38:48;;;;;;;8.18;4.90;;;;;;;;;;6182681;28;20181;-66
2021/07/21 14:41:51;;;;;;;7.32;4.80;;;;;;;;;;6181487;28;20038;-66
2021/07/21 14:44:54;;;;;;;6.85;5.07;;;;;;;;;;6187409;28;20050;-65
2021/07/21 14:47:56;;;;;;;6.45;4.15;;;;;;;;;;6171788;28;20136;-66
2021/07/21 14:50:58;;;;;;;7.50;4.82;;;;;;;;;;6177602;28;20133;-66
2021/07/21 14:54:00;;;;;;;10.38;4.90;;;;;;;;;;6185913;28;20564;-65
2021/07/21 14:57:02;;;;;;;6.18;4.90;;;;;;;;;;6178145;28;20232;-68
2021/07/21 15:00:07;;;;;;;5.47;4.63;;;;;;;;;;6183876;28;20046;-65
2021/07/21 15:03:09;;;;;;;6.32;4.80;;;;;;;;;;6177446;28;20077;-66
2021/07/21 15:06:11;;;;;;;8.60;4.53;;;;;;;;;;6177009;28;20054;-67
2021/07/21 15:09:12;;;;;;;7.97;4.97;;;;;;;;;;6183483;28;20128;-65
2021/07/21 15:12:14;;;;;;;;;;;;;;;;;;6177925;28;20046;-66
2021/07/21 15:15:17;;;;;;;10.60;4.93;;;;;;;;;;6176319;28;19941;-68
2021/07/21 15:18:19;;;;;;;14.23;5.43;;;;;;;;;;6175327;28;20053;-69
2021/07/21 15:21:20;;;;;;;9.27;4.78;;;;;;;;;;6175702;28;20057;-67
2021/07/21 15:24:22;;;;;;;;;;;;;;;;;;6183096;28;20038;-69
2021/07/21 15:27:24;;;;;;;12.00;5.00;;;;;;;;;;6175579;28;19961;-65
2021/07/21 15:30:27;;;;;;;7.28;4.72;;;;;;;;;;6175743;28;20042;-68
2021/07/21 15:33:28;;;;;;;9.55;4.82;;;;;;;;;;6175197;28;20058;-68
2021/07/21 15:36:30;;;;;;;10.35;5.95;;;;;;;;;;6173731;28;20502;-65
2021/07/21 15:39:32;;;;;;;10.70;5.93;;;;;;;;;;6181628;28;20042;-68
2021/07/21 15:42:34;;;;;;;10.05;5.80;;;;;;;;;;6179361;28;20106;-65
2021/07/21 15:45:39;;;;;;;7.18;5.47;;;;;;;;;;6178013;28;20070;-66
2021/07/21 15:48:41;;;;;;;7.78;5.20;;;;;;;;;;6180219;28;20073;-65
2021/07/21 15:51:43;;;;;;;8.38;5.43;;;;;;;;;;6172657;28;20052;-65
2021/07/21 15:54:45;;;;;;;6.45;5.43;;;;;;;;;;6179369;28;20046;-66
2021/07/21 15:57:48;;;;;;;9.75;5.78;;;;;;;;;;6179219;28;20083;-64
2021/07/21 16:00:51;;;;;;;10.18;5.00;;;;;;;;;;6183060;28;20125;-65
2021/07/21 16:03:53;;;;;;;10.57;5.40;;;;;;;;;;6178717;28;20146;-64
2021/07/21 16:06:55;;;;;;;8.35;5.30;;;;;;;;;;6169322;28;20054;-65
2021/07/21 16:09:57;;;;;;;8.50;5.53;;;;;;;;;;6183565;28;20046;-64
2021/07/21 16:12:58;;;;;;;10.23;5.50;;;;;;;;;;6172076;28;20055;-65
2021/07/21 16:16:04;;;;;;;8.73;5.78;;;;;;;;;;6182001;28;20474;-66
2021/07/21 16:19:06;;;;;;;8.90;5.53;;;;;;;;;;6179555;28;20129;-67
2021/07/21 16:22:07;;;;;;;9.45;5.30;;;;;;;;;;6173364;28;20197;-65
2021/07/21 16:25:13;;;;;;;9.63;5.57;;;;;;;;;;6178111;28;20181;-68
2021/07/21 16:28:14;;;;;;;6.93;4.60;;;;;;;;;;6180390;28;20496;-67
2021/07/21 16:31:17;;;;;;;5.25;4.75;;;;;;;;;;6171136;28;20065;-65
2021/07/21 16:34:20;;;;;;;7.10;4.85;;;;;;;;;;6180434;28;20422;-64
2021/07/21 16:37:21;;;;;;;;;;;;;;;;;;6172589;28;20465;-68
2021/07/21 16:40:23;;;;;;;6.90;4.97;;;;;;;;;;6176789;28;20120;-68
2021/07/21 16:43:25;;;;;;;10.98;4.65;;;;;;;;;;6185019;28;20472;-65
2021/07/21 16:46:28;;;;;;;7.97;5.18;;;;;;;;;;6174990;28;20069;-67
2021/07/21 16:49:30;;;;;;;8.55;4.65;;;;;;;;;;6180231;28;20116;-64
2021/07/21 16:52:31;;;;;;;8.67;5.27;;;;;;;;;;6173139;28;20110;-65
2021/07/21 16:55:33;;;;;;;8.13;5.78;;;;;;;;;;6178034;28;20047;-68
2021/07/21 16:58:35;;;;;;;8.33;5.23;;;;;;;;;;6186205;28;20054;-64
2021/07/21 17:01:38;;;;;;;8.68;5.55;;;;;;;;;;6175714;28;20054;-64
2021/07/21 17:04:40;;;;;;;6.72;5.30;;;;;;;;;;6186241;28;20114;-65
2021/07/21 17:07:42;;;;;;;10.37;5.20;;;;;;;;;;6181639;28;20053;-65
2021/07/21 17:10:44;;;;;;;6.70;4.90;;;;;;;;;;6182752;28;20469;-65
2021/07/21 17:13:46;;;;;;;8.65;5.70;;;;;;;;;;6187176;28;20085;-64
2021/07/21 17:16:49;;;;;;;9.07;5.85;;;;;;;;;;6176429;28;20561;-68
2021/07/21 17:19:51;;;;;;;6.75;5.25;;;;;;;;;;6187991;28;20050;-65
2021/07/21 17:22:53;;;;;;;10.00;5.23;;;;;;;;;;6179933;28;20136;-64
2021/07/21 17:25:55;;;;;;;9.48;5.30;;;;;;;;;;6165158;28;20448;-65
2021/07/21 17:28:57;;;;;;;11.60;5.57;;;;;;;;;;6185708;28;20074;-64
2021/07/21 17:32:00;;;;;;;6.87;5.23;;;;;;;;;;6174535;28;20058;-67
2021/07/21 17:35:01;;;;;;;7.28;4.88;;;;;;;;;;6180313;28;20066;-67
2021/07/21 17:38:03;;;;;;;10.57;5.80;;;;;;;;;;6178553;28;20101;-64
2021/07/21 17:41:05;;;;;;;10.43;6.03;;;;;;;;;;6176900;28;20054;-65
2021/07/21 17:44:07;;;;;;;11.63;6.03;;;;;;;;;;6184911;28;20696;-65
2021/07/21 17:47:10;;;;;;;8.13;5.30;;;;;;;;;;6170305;28;20061;-65
2021/07/21 17:50:15;;;;;;;9.43;4.93;;;;;;;;;;6179078;28;20054;-68
2021/07/21 17:53:18;;;;;;;10.43;5.88;;;;;;;;;;6182722;28;20126;-64
2021/07/21 17:56:20;;;;;;;8.77;5.68;;;;;;;;;;6176477;28;20517;-68
2021/07/21 17:59:22;;;;;;;9.35;6.18;;;;;;;;;;6188046;28;20066;-68
2021/07/21 18:02:25;;;;;;;6.23;5.20;;;;;;;;;;6168126;28;20042;-65
2021/07/21 18:05:27;;;;;;;6.53;5.40;;;;;;;;;;6174727;28;20597;-65
2021/07/21 18:08:29;;;;;;;7.77;5.20;;;;;;;;;;6184782;28;20053;-65
2021/07/21 18:11:30;;;;;;;11.10;5.55;;;;;;;;;;6177830;28;20469;-65
2021/07/21 18:14:32;;;;;;;8.27;5.03;;;;;;;;;;6189052;28;20062;-64
2021/07/21 18:17:35;;;;;;;9.35;4.90;;;;;;;;;;6166093;28;20145;-64
2021/07/21 18:20:37;;;;;;;13.02;5.88;;;;;;;;;;6175158;28;20080;-65
2021/07/21 18:23:39;;;;;;;9.43;5.73;;;;;;;;;;6186735;28;20531;-65
2021/07/21 18:26:46;;;;;;;6.10;5.53;;;;;;;;;;6181497;28;20193;-65
2021/07/21 18:29:48;;;;;;;7.22;5.47;;;;;;;;;;6185933;28;20461;-65